Observations for CULDROSE NAVY, United Kingdom (EGDR)

EGDR 200550Z AUTO 05011KT 9999 // NCD 10/06 Q1030   
EGDR 200450Z AUTO 04009KT 9999 // NCD 11/06 Q1029   
EGDR 200350Z AUTO 03007KT 9999 // NCD 12/05 Q1029   
EGDR 200250Z AUTO 02009KT 9999 // NCD 12/05 Q1030   
EGDR 200150Z AUTO 03007KT 9999 // NCD 11/05 Q1030   
EGDR 200050Z AUTO 04005KT 9999 // NCD 12/05 Q1030   
EGDR 192350Z AUTO 06005KT 9999 // NCD 11/05 Q1030   
EGDR 192250Z AUTO 03006KT 9999 // NCD 14/07 Q1030   
EGDR 192150Z AUTO 03005KT 9999 // NCD 13/08 Q1030   
EGDR 192050Z AUTO 07007KT 9999 // NCD 14/08 Q1029   
EGDR 191950Z AUTO 07007KT 9999 // NCD 14/08 Q1029   
EGDR 191850Z AUTO 04006KT 9999 // NCD 15/08 Q1029   
EGDR 191750Z AUTO 06006KT 9999 // NCD 16/08 Q1029   
EGDR 191650Z AUTO 07007KT 9999 // NCD 17/08 Q1028   
EGDR 191550Z AUTO 08014KT 9999 // NCD 18/09 Q1027   
EGDR 191450Z AUTO 08013KT 9999 // NCD 19/08 Q1027   
EGDR 191350Z AUTO 07014KT 9999 // NCD 19/08 Q1027   
EGDR 191250Z AUTO 08014KT 9999 // NCD 18/08 Q1027   
EGDR 191150Z AUTO 07018KT 9999 // NCD 18/08 Q1027   
EGDR 191050Z AUTO 08019KT 9999 // NCD 17/08 Q1027   
EGDR 190950Z AUTO 07018KT 9999 // NCD 16/08 Q1027   
EGDR 190850Z AUTO 08018KT 9999 // NCD 15/07 Q1026   
EGDR 190750Z AUTO 07015KT 9999 // NCD 15/07 Q1026   
EGDR 190650Z AUTO 07014KT 9999 // NCD 13/07 Q1025   
EGDR 190550Z AUTO 06016KT 9999 // NCD 11/07 Q1025